Time;durP1;ratioP1;P1;durP2;ratioP2;P2;SDS_P1;SDS_P2;PMS_P1;PMS_P2;Temp;Humidity;BMP_temperature;BMP_pressure;BME280_temperature;BME280_humidity;BME280_pressure;Samples;Min_cycle;Max_cycle;Signal;HPM_P1;HPM_P2
2022/11/10 00:00:41;;;;;;;9.38;1.90;;;9.70;99.90;;;;;;5090497;28;20423;-48
2022/11/10 00:03:08;;;;;;;8.60;2.00;;;9.60;99.90;;;;;;5090567;28;20035;-47
2022/11/10 00:05:36;;;;;;;14.60;1.70;;;9.50;99.90;;;;;;5090451;28;20020;-50
2022/11/10 00:08:08;;;;;;;11.35;2.30;;;9.50;99.90;;;;;;5089686;28;20051;-53
2022/11/10 00:10:55;;;;;;;13.32;1.88;;;9.50;99.90;;;;;;5090327;28;20034;-49
2022/11/10 00:13:25;;;;;;;7.88;1.60;;;9.50;99.90;;;;;;5090651;28;20024;-45
2022/11/10 00:18:35;;;;;;;11.88;1.90;;;9.50;99.90;;;;;;5088230;28;20419;-50
2022/11/10 00:21:03;;;;;;;14.63;1.90;;;9.50;99.90;;;;;;5090182;28;20056;-49
2022/11/10 00:23:29;;;;;;;10.45;1.65;;;9.50;99.90;;;;;;5090696;28;20107;-47
2022/11/10 00:25:54;;;;;;;11.90;2.22;;;9.50;99.90;;;;;;5090298;28;20116;-53
2022/11/10 00:28:20;;;;;;;12.32;1.88;;;9.50;99.90;;;;;;5086483;28;20032;-44
2022/11/10 00:30:46;;;;;;;15.77;2.35;;;9.40;99.90;;;;;;5090445;28;20022;-53
2022/11/10 00:33:11;;;;;;;10.68;2.15;;;9.50;99.90;;;;;;5090352;28;20111;-51
2022/11/10 00:35:37;;;;;;;7.30;1.58;;;9.50;99.90;;;;;;5090422;28;20069;-50
2022/11/10 00:38:02;;;;;;;12.60;1.98;;;9.40;99.90;;;;;;5085047;28;20420;-51
2022/11/10 00:40:28;;;;;;;13.68;2.80;;;9.40;99.90;;;;;;5090094;28;20107;-50
2022/11/10 00:42:53;;;;;;;13.90;1.98;;;9.40;99.90;;;;;;5090339;28;20051;-50
2022/11/10 00:45:19;;;;;;;10.55;1.55;;;9.40;99.90;;;;;;5090103;28;20126;-48
2022/11/10 00:47:45;;;;;;;8.02;1.60;;;9.40;99.90;;;;;;5086822;28;20033;-45
2022/11/10 00:50:11;;;;;;;12.27;2.10;;;9.40;99.90;;;;;;5086867;28;20088;-48
2022/11/10 00:52:36;;;;;;;12.88;1.52;;;8.80;99.90;;;;;;5091263;28;20028;-44
2022/11/10 00:55:02;;;;;;;12.05;2.00;;;9.50;99.90;;;;;;5093708;28;20719;-49
2022/11/10 00:57:28;;;;;;;13.77;1.63;;;9.60;99.90;;;;;;5092837;28;20032;-50
2022/11/10 00:59:54;;;;;;;11.02;1.58;;;9.60;99.90;;;;;;5086663;28;20032;-50
2022/11/10 01:02:19;;;;;;;20.40;2.15;;;9.80;99.90;;;;;;5093531;28;20027;-50
2022/11/10 01:04:45;;;;;;;18.20;2.22;;;9.80;99.90;;;;;;5093765;28;20028;-49
2022/11/10 01:07:10;;;;;;;20.45;2.10;;;9.90;99.90;;;;;;5093378;28;20118;-48
2022/11/10 01:09:36;;;;;;;19.40;1.85;;;10.00;99.90;;;;;;5079217;28;20024;-46
2022/11/10 01:12:02;;;;;;;18.05;2.10;;;10.20;99.90;;;;;;5093630;28;20024;-54
2022/11/10 01:14:27;;;;;;;18.80;1.90;;;10.30;99.90;;;;;;5093366;28;20400;-51
2022/11/10 01:16:53;;;;;;;17.42;2.08;;;10.50;99.90;;;;;;5089683;28;20035;-46
2022/11/10 01:19:18;;;;;;;19.42;2.35;;;10.70;99.90;;;;;;5087945;28;20024;-53
2022/11/10 01:21:44;;;;;;;17.73;2.05;;;10.80;99.90;;;;;;5093103;28;20157;-46
2022/11/10 01:24:10;;;;;;;21.02;2.00;;;10.80;99.90;;;;;;5093303;28;20032;-48
2022/11/10 01:26:35;;;;;;;18.45;1.60;;;10.90;99.90;;;;;;5092162;28;20552;-52
2022/11/10 01:29:01;;;;;;;21.88;2.65;;;11.00;99.90;;;;;;5083570;28;20078;-46
2022/11/10 01:31:26;;;;;;;13.55;1.42;;;11.10;99.90;;;;;;5092560;28;20028;-49
2022/11/10 01:33:52;;;;;;;21.35;2.30;;;11.20;99.90;;;;;;5092865;28;20107;-50
2022/11/10 01:36:18;;;;;;;10.65;1.50;;;11.20;99.90;;;;;;5092781;28;20072;-46
2022/11/10 01:38:43;;;;;;;14.70;2.17;;;11.20;99.90;;;;;;5081082;28;20024;-50
2022/11/10 01:41:11;;;;;;;13.70;1.85;;;11.20;99.90;;;;;;5092749;28;20031;-54
2022/11/10 01:43:37;;;;;;;14.55;1.98;;;11.20;99.90;;;;;;5092744;28;20461;-50
2022/11/10 01:46:11;;;;;;;11.45;1.65;;;11.20;99.90;;;;;;5092762;28;20373;-43
2022/11/10 01:48:46;;;;;;;13.57;1.73;;;11.30;99.90;;;;;;5079271;28;20508;-47
2022/11/10 01:51:22;;;;;;;9.77;1.42;;;11.30;99.90;;;;;;5092757;28;20100;-49
2022/11/10 01:54:10;;;;;;;14.95;1.92;;;11.40;99.90;;;;;;5092453;28;20515;-44
2022/11/10 01:56:45;;;;;;;13.20;2.17;;;11.40;99.90;;;;;;5092051;28;20055;-45
2022/11/10 01:59:16;;;;;;;12.68;2.08;;;11.50;99.90;;;;;;5079211;28;20020;-46
2022/11/10 02:01:45;;;;;;;13.05;1.55;;;11.50;99.90;;;;;;5092607;28;20036;-47
2022/11/10 02:04:15;;;;;;;18.10;1.43;;;11.50;99.90;;;;;;5091962;28;20012;-48
2022/11/10 02:06:44;;;;;;;14.80;1.38;;;11.50;99.90;;;;;;5091463;28;20035;-58
2022/11/10 02:09:10;;;;;;;16.50;1.70;;;11.60;99.90;;;;;;5087105;28;20028;-48
2022/11/10 02:11:37;;;;;;;13.60;1.50;;;11.60;99.90;;;;;;5092011;28;20022;-51
2022/11/10 02:14:03;;;;;;;15.40;1.70;;;11.70;99.90;;;;;;5090161;28;20059;-53
2022/11/10 02:16:30;;;;;;;15.73;1.40;;;12.10;99.90;;;;;;5091996;28;20028;-55
2022/11/10 02:18:55;;;;;;;14.60;1.73;;;11.80;99.90;;;;;;5086134;28;20358;-52
2022/11/10 02:21:21;;;;;;;16.92;1.50;;;11.80;99.90;;;;;;5091778;28;20066;-51
2022/11/10 02:23:50;;;;;;;14.73;2.00;;;11.80;99.90;;;;;;5091897;28;20054;-52
2022/11/10 02:26:22;;;;;;;9.60;1.50;;;11.90;99.90;;;;;;5091816;28;20032;-45
2022/11/10 02:28:48;;;;;;;22.13;1.77;;;11.90;99.90;;;;;;5084128;28;20040;-49
2022/11/10 02:31:14;;;;;;;18.15;2.15;;;12.00;99.90;;;;;;5091852;28;20431;-49
2022/11/10 02:33:40;;;;;;;9.77;1.40;;;12.00;99.90;;;;;;5091872;28;20384;-48
2022/11/10 02:36:07;;;;;;;13.85;2.28;;;12.00;99.90;;;;;;5091594;28;20098;-49
2022/11/10 02:38:33;;;;;;;11.77;1.77;;;12.10;99.90;;;;;;5082781;28;20030;-48
2022/11/10 02:40:58;;;;;;;16.90;1.80;;;12.10;99.90;;;;;;5091418;28;20032;-46
2022/11/10 02:43:24;;;;;;;13.75;1.52;;;12.20;99.90;;;;;;5091516;28;20024;-51
2022/11/10 02:45:49;;;;;;;18.63;1.80;;;12.20;99.90;;;;;;5091677;28;20059;-54
2022/11/10 02:48:16;;;;;;;14.80;1.85;;;12.30;99.90;;;;;;5080972;28;20119;-48
2022/11/10 02:50:42;;;;;;;15.00;2.55;;;12.40;99.90;;;;;;5091424;28;20024;-47
2022/11/10 02:53:08;;;;;;;14.27;1.73;;;12.50;99.90;;;;;;5091357;28;20377;-48
2022/11/10 02:55:34;;;;;;;5.40;1.15;;;12.50;99.90;;;;;;5090153;28;20043;-50
2022/11/10 02:57:59;;;;;;;13.75;2.08;;;12.50;99.90;;;;;;5080948;28;20477;-42
2022/11/10 03:00:26;;;;;;;8.77;1.23;;;12.40;99.90;;;;;;5089571;28;20066;-46
2022/11/10 03:02:56;;;;;;;7.50;1.40;;;12.40;99.90;;;;;;5091302;28;20103;-51
2022/11/10 03:05:22;;;;;;;13.63;1.88;;;12.40;99.90;;;;;;5090911;28;20035;-43
2022/11/10 03:07:56;;;;;;;13.73;1.95;;;12.40;99.90;;;;;;5086166;28;20040;-51
2022/11/10 03:10:22;;;;;;;16.52;1.70;;;12.10;99.90;;;;;;5091311;28;20024;-44
2022/11/10 03:12:48;;;;;;;13.07;1.52;;;12.30;99.90;;;;;;5090929;28;20020;-51
2022/11/10 03:15:14;;;;;;;15.30;1.42;;;12.40;99.90;;;;;;5090895;28;20026;-51
2022/11/10 03:17:40;;;;;;;13.88;1.48;;;12.40;99.90;;;;;;5084058;28;20040;-53
2022/11/10 03:20:06;;;;;;;15.77;1.67;;;12.40;99.90;;;;;;5090831;28;20423;-52
2022/11/10 03:22:32;;;;;;;10.75;1.60;;;12.50;99.90;;;;;;5091119;28;20115;-48
2022/11/10 03:24:57;;;;;;;10.43;1.50;;;12.40;99.90;;;;;;5090991;28;20445;-57
2022/11/10 03:27:23;;;;;;;15.45;2.17;;;12.50;99.90;;;;;;5086309;28;20047;-49
2022/11/10 03:29:48;;;;;;;12.80;1.92;;;12.50;99.90;;;;;;5087836;28;20016;-47
2022/11/10 03:32:14;;;;;;;14.10;1.85;;;12.40;99.90;;;;;;5090934;28;20041;-46
2022/11/10 03:34:40;;;;;;;14.75;2.30;;;12.50;99.90;;;;;;5090785;28;20016;-55
2022/11/10 03:37:05;;;;;;;9.68;1.35;;;12.50;99.90;;;;;;5089263;28;20534;-43
2022/11/10 03:39:31;;;;;;;11.93;1.60;;;12.50;99.90;;;;;;5083844;28;20028;-47
2022/11/10 03:41:56;;;;;;;12.60;1.35;;;12.50;99.90;;;;;;5090096;28;20043;-52
2022/11/10 03:44:22;;;;;;;15.82;1.73;;;12.60;99.90;;;;;;5090507;28;20445;-45
2022/11/10 03:46:48;;;;;;;14.38;1.83;;;12.60;99.90;;;;;;5090692;28;20119;-51
2022/11/10 03:49:13;;;;;;;17.27;2.15;;;12.70;99.90;;;;;;5089656;28;20080;-47
2022/11/10 03:51:39;;;;;;;14.48;1.90;;;12.70;99.90;;;;;;5090896;28;20059;-45
2022/11/10 03:54:05;;;;;;;11.43;2.05;;;12.70;99.90;;;;;;5090524;28;20373;-53
2022/11/10 03:56:30;;;;;;;13.98;1.48;;;12.70;99.90;;;;;;5090637;28;20043;-46
2022/11/10 03:58:56;;;;;;;14.05;1.73;;;12.70;99.90;;;;;;5090167;28;20020;-50
2022/11/10 04:01:22;;;;;;;18.60;2.15;;;12.80;99.90;;;;;;5090663;28;20575;-43
2022/11/10 04:03:48;;;;;;;11.70;2.05;;;12.70;99.90;;;;;;5090364;28;20035;-53
2022/11/10 04:08:59;;;;;;;10.68;1.35;;;12.70;99.90;;;;;;5089406;28;20043;-49
2022/11/10 04:16:56;;;;;;;12.35;1.80;;;12.60;99.90;;;;;;5090800;28;20031;-45
2022/11/10 04:19:21;;;;;;;11.35;1.40;;;12.60;99.90;;;;;;5090016;28;20077;-51
2022/11/10 04:21:47;;;;;;;14.93;1.95;;;12.60;99.90;;;;;;5090289;28;20043;-43
2022/11/10 04:24:13;;;;;;;9.13;1.60;;;12.60;99.90;;;;;;5090311;28;20370;-51
2022/11/10 04:26:39;;;;;;;8.73;1.50;;;12.60;99.90;;;;;;5090259;28;20036;-51
2022/11/10 04:29:07;;;;;;;11.02;1.55;;;12.70;99.90;;;;;;5088311;28;20111;-45
2022/11/10 04:31:36;;;;;;;10.95;1.45;;;12.70;99.90;;;;;;5086014;28;20016;-45
2022/11/10 04:34:03;;;;;;;13.10;1.80;;;12.80;99.90;;;;;;5081302;28;20024;-58
2022/11/10 04:36:31;;;;;;;16.13;2.38;;;12.80;99.90;;;;;;5091492;28;20016;-47
2022/11/10 04:38:57;;;;;;;18.60;2.10;;;12.90;99.90;;;;;;5093307;28;20024;-56
2022/11/10 04:41:24;;;;;;;11.65;1.65;;;13.00;99.90;;;;;;5093937;28;20040;-43
2022/11/10 04:43:50;;;;;;;16.42;2.67;;;13.00;99.90;;;;;;5093811;28;20392;-51
2022/11/10 04:46:24;;;;;;;14.85;2.15;;;12.90;99.90;;;;;;5093753;28;20480;-53
2022/11/10 04:48:50;;;;;;;8.80;1.27;;;12.90;99.90;;;;;;5093107;28;20038;-54
2022/11/10 04:51:17;;;;;;;12.60;1.60;;;12.90;99.90;;;;;;5094075;28;20168;-49
2022/11/10 04:53:43;;;;;;;11.77;1.60;;;12.90;99.90;;;;;;5093524;28;20107;-52
2022/11/10 04:56:14;;;;;;;18.17;1.63;;;12.90;99.90;;;;;;5093065;28;20103;-50
2022/11/10 04:58:40;;;;;;;14.63;2.45;;;12.90;99.90;;;;;;5082395;28;20036;-44
2022/11/10 05:01:08;;;;;;;12.93;2.22;;;12.90;99.90;;;;;;5093509;28;20027;-47
2022/11/10 05:03:33;;;;;;;16.08;2.10;;;12.90;99.90;;;;;;5092310;28;20453;-52
2022/11/10 05:05:59;;;;;;;9.60;1.25;;;12.90;99.90;;;;;;5093441;28;20062;-52
2022/11/10 05:08:24;;;;;;;10.60;2.13;;;13.10;99.90;;;;;;5082543;28;20035;-45
2022/11/10 05:10:50;;;;;;;11.90;1.77;;;12.80;99.90;;;;;;5090542;28;20389;-46
2022/11/10 05:13:15;;;;;;;15.38;1.98;;;12.70;99.90;;;;;;5092558;28;20024;-46
2022/11/10 05:15:41;;;;;;;13.02;1.70;;;12.60;99.90;;;;;;5092607;28;20091;-47
2022/11/10 05:18:07;;;;;;;15.75;1.85;;;12.60;99.90;;;;;;5092123;28;20028;-49
2022/11/10 05:20:33;;;;;;;15.13;1.90;;;12.60;99.90;;;;;;5092410;28;20493;-44
2022/11/10 05:25:43;;;;;;;14.43;1.80;;;12.60;99.90;;;;;;5092499;28;20414;-57
2022/11/10 05:28:11;;;;;;;13.25;1.73;;;12.70;99.90;;;;;;5092168;28;20489;-48
2022/11/10 05:30:37;;;;;;;18.25;1.98;;;12.70;99.90;;;;;;5092528;28;20036;-48
2022/11/10 05:33:04;;;;;;;8.30;1.20;;;12.80;99.90;;;;;;5092912;28;20072;-49
2022/11/10 05:35:30;;;;;;;13.65;1.65;;;12.80;99.90;;;;;;5092363;28;20039;-46
2022/11/10 05:37:55;;;;;;;16.25;2.00;;;12.80;99.90;;;;;;5092778;28;20028;-44
2022/11/10 05:40:21;;;;;;;14.77;2.40;;;12.80;99.90;;;;;;5091693;28;20158;-46
2022/11/10 05:42:52;;;;;;;15.13;1.80;;;12.80;99.90;;;;;;5092921;28;20020;-54
2022/11/10 05:45:19;;;;;;;13.93;1.60;;;12.80;99.90;;;;;;5091772;28;20031;-43
2022/11/10 05:47:46;;;;;;;10.65;2.10;;;12.70;99.90;;;;;;5083652;28;20045;-49
2022/11/10 05:50:11;;;;;;;9.80;1.80;;;12.70;99.90;;;;;;5090582;28;20012;-51
2022/11/10 05:53:03;;;;;;;13.93;1.70;;;12.70;99.90;;;;;;5082618;28;20033;-49
2022/11/10 05:55:29;;;;;;;12.50;1.58;;;12.70;99.90;;;;;;5082095;28;20048;-43
2022/11/10 05:57:56;;;;;;;13.85;1.60;;;12.60;99.90;;;;;;5082002;28;20077;-54
2022/11/10 06:00:27;;;;;;;12.60;1.75;;;12.50;99.90;;;;;;5090472;28;20073;-56
2022/11/10 06:03:17;;;;;;;13.57;2.13;;;12.50;99.90;;;;;;5092534;28;20107;-45
2022/11/10 06:05:43;;;;;;;21.80;1.92;;;12.40;99.90;;;;;;5070617;28;20028;-45
2022/11/10 06:08:09;;;;;;;16.48;2.15;;;12.30;99.90;;;;;;5091756;28;20119;-56
2022/11/10 06:10:35;;;;;;;15.07;1.92;;;12.30;99.90;;;;;;5092224;28;20423;-48
2022/11/10 06:13:01;;;;;;;14.50;1.75;;;12.20;99.90;;;;;;5091761;28;20620;-49
2022/11/10 06:15:27;;;;;;;12.57;1.55;;;12.20;99.90;;;;;;5078111;28;20024;-54
2022/11/10 06:17:54;;;;;;;13.73;1.65;;;12.30;99.90;;;;;;5090377;28;20046;-51
2022/11/10 06:20:20;;;;;;;12.48;1.88;;;12.30;99.90;;;;;;5089905;28;20549;-48
2022/11/10 06:23:09;;;;;;;9.32;1.80;;;12.40;99.90;;;;;;5090075;28;20019;-54
2022/11/10 06:25:37;;;;;;;11.13;1.10;;;12.50;99.90;;;;;;5076445;28;20066;-47
2022/11/10 06:28:04;;;;;;;14.23;1.75;;;12.60;99.90;;;;;;5089611;28;20040;-54
2022/11/10 06:30:31;;;;;;;18.35;2.53;;;12.70;99.90;;;;;;5091662;28;20424;-48
2022/11/10 06:32:57;;;;;;;15.95;1.75;;;12.70;99.90;;;;;;5082563;28;20050;-54
2022/11/10 06:35:24;;;;;;;7.60;1.20;;;12.80;99.90;;;;;;5091764;28;20099;-51
2022/11/10 06:38:00;;;;;;;10.25;1.23;;;12.90;99.90;;;;;;5091585;28;20108;-58
2022/11/10 06:40:27;;;;;;;14.63;1.65;;;12.90;99.90;;;;;;5091831;28;20066;-56
2022/11/10 06:42:52;;;;;;;15.05;1.95;;;13.00;99.90;;;;;;5081344;28;20378;-56
2022/11/10 06:45:18;;;;;;;10.30;1.35;;;13.00;99.90;;;;;;5091756;28;20416;-48
2022/11/10 06:47:43;;;;;;;10.00;1.60;;;13.00;99.90;;;;;;5091289;28;20036;-50
2022/11/10 06:50:09;;;;;;;14.40;2.38;;;13.00;99.90;;;;;;5090750;28;20031;-51
2022/11/10 06:52:35;;;;;;;12.88;1.67;;;13.00;99.90;;;;;;5089339;28;20032;-45
2022/11/10 06:55:01;;;;;;;12.27;1.63;;;13.00;99.90;;;;;;5091468;28;20020;-47
2022/11/10 06:57:26;;;;;;;17.13;2.00;;;13.00;99.90;;;;;;5091455;28;20024;-49
2022/11/10 06:59:53;;;;;;;12.25;1.38;;;13.00;99.90;;;;;;5091543;28;20027;-47
2022/11/10 07:02:19;;;;;;;11.25;1.45;;;13.30;99.90;;;;;;5087524;28;20024;-53
2022/11/10 07:04:44;;;;;;;11.63;1.52;;;13.00;99.90;;;;;;5090687;28;20107;-53
2022/11/10 07:07:10;;;;;;;12.88;1.58;;;13.00;99.90;;;;;;5090488;28;20032;-51
2022/11/10 07:09:36;;;;;;;11.38;1.60;;;13.00;99.90;;;;;;5091213;28;20420;-49
2022/11/10 07:12:03;;;;;;;14.73;2.33;;;13.00;99.90;;;;;;5084645;28;20025;-44
2022/11/10 07:14:28;;;;;;;15.70;2.25;;;12.90;99.90;;;;;;5078594;28;20035;-46
2022/11/10 07:16:54;;;;;;;10.80;1.20;;;12.80;99.90;;;;;;5090999;28;20040;-54
2022/11/10 07:19:20;;;;;;;13.40;1.95;;;12.80;99.90;;;;;;5090978;28;20020;-54
2022/11/10 07:21:45;;;;;;;11.77;1.45;;;12.70;99.90;;;;;;5086960;28;20040;-50
2022/11/10 07:24:11;;;;;;;22.45;2.03;;;12.70;99.90;;;;;;5087023;28;20024;-52
2022/11/10 07:26:36;;;;;;;18.10;1.80;;;12.70;99.90;;;;;;5091056;28;20043;-50
2022/11/10 07:29:02;;;;;;;11.38;1.65;;;12.70;99.90;;;;;;5090829;28;20080;-51
2022/11/10 07:31:28;;;;;;;16.20;2.22;;;12.70;99.90;;;;;;5088961;28;20077;-55
2022/11/10 07:33:53;;;;;;;16.05;2.10;;;12.80;99.90;;;;;;5084026;28;20039;-49
2022/11/10 07:36:19;;;;;;;20.02;1.83;;;12.90;99.90;;;;;;5090509;28;20341;-48
2022/11/10 07:38:44;;;;;;;10.80;1.92;;;12.90;99.90;;;;;;5091049;28;20433;-43
2022/11/10 07:41:10;;;;;;;13.25;1.70;;;13.00;99.90;;;;;;5088997;28;20482;-53
2022/11/10 07:43:36;;;;;;;11.45;2.10;;;13.00;99.90;;;;;;5089911;28;20044;-53
2022/11/10 07:46:01;;;;;;;16.52;1.95;;;13.10;99.90;;;;;;5088451;28;20031;-53
2022/11/10 07:48:27;;;;;;;12.45;2.20;;;13.10;99.90;;;;;;5089991;28;20028;-54
2022/11/10 07:50:53;;;;;;;14.95;1.67;;;13.20;99.90;;;;;;5090239;28;20020;-43
2022/11/10 07:53:19;;;;;;;21.33;3.25;;;13.30;99.90;;;;;;5089327;28;20103;-43
2022/11/10 07:55:45;;;;;;;15.18;1.80;;;13.40;99.90;;;;;;5087923;28;20059;-43
2022/11/10 07:58:16;;;;;;;13.48;1.95;;;13.50;99.90;;;;;;5090771;28;20099;-42
2022/11/10 08:00:43;;;;;;;11.20;1.95;;;13.70;99.90;;;;;;5090614;28;20505;-50
2022/11/10 08:03:10;;;;;;;13.23;1.85;;;13.80;99.90;;;;;;5091912;28;20495;-44
2022/11/10 08:05:36;;;;;;;10.25;1.60;;;13.90;99.90;;;;;;5094638;28;20020;-58
2022/11/10 08:08:03;;;;;;;13.60;1.88;;;14.10;99.90;;;;;;5094271;28;20049;-43
2022/11/10 08:10:29;;;;;;;10.50;1.55;;;14.40;99.90;;;;;;5093990;28;20028;-50
2022/11/10 08:12:56;;;;;;;10.70;2.28;;;14.60;99.90;;;;;;5093078;28;20044;-50
2022/11/10 08:15:24;;;;;;;6.60;1.42;;;15.00;99.90;;;;;;5094455;28;20048;-48
2022/11/10 08:17:49;;;;;;;10.18;1.40;;;15.60;99.90;;;;;;5094451;28;20027;-46
2022/11/10 08:20:16;;;;;;;17.30;2.20;;;16.20;99.90;;;;;;5094090;28;20044;-44
2022/11/10 08:22:42;;;;;;;9.30;1.75;;;16.20;99.90;;;;;;5088620;28;20028;-50
2022/11/10 08:25:09;;;;;;;9.35;1.45;;;15.80;99.90;;;;;;5090918;28;20076;-46
2022/11/10 08:27:34;;;;;;;7.22;1.42;;;15.50;99.90;;;;;;5093555;28;20032;-54
2022/11/10 08:30:00;;;;;;;14.48;2.00;;;15.20;99.90;;;;;;5094008;28;20020;-48
2022/11/10 08:32:26;;;;;;;10.95;1.30;;;15.10;99.90;;;;;;5092904;28;20434;-51
2022/11/10 08:34:51;;;;;;;12.52;1.45;;;15.10;99.90;;;;;;5094081;28;20089;-51
2022/11/10 08:37:17;;;;;;;7.80;1.35;;;15.60;99.90;;;;;;5093532;28;20118;-50
2022/11/10 08:39:43;;;;;;;9.80;1.25;;;15.70;99.90;;;;;;5075872;28;20027;-45
2022/11/10 08:42:08;;;;;;;11.73;1.40;;;15.80;99.90;;;;;;5092781;28;20031;-52
2022/11/10 08:44:34;;;;;;;11.57;2.67;;;15.90;99.90;;;;;;5093637;28;20031;-53
2022/11/10 08:47:01;;;;;;;13.90;1.60;;;16.00;99.90;;;;;;5093507;28;20074;-46
2022/11/10 08:49:27;;;;;;;10.88;1.55;;;18.60;99.90;;;;;;5092055;28;20035;-53
2022/11/10 08:51:53;;;;;;;7.20;1.35;;;16.70;99.90;;;;;;5088117;28;20039;-43
2022/11/10 08:54:18;;;;;;;16.75;3.25;;;17.30;99.90;;;;;;5082589;28;20090;-48
2022/11/10 08:56:44;;;;;;;10.85;1.52;;;17.70;99.90;;;;;;5093512;28;20035;-48
2022/11/10 08:59:10;;;;;;;10.77;1.52;;;17.60;99.90;;;;;;5093789;28;20085;-45
2022/11/10 09:01:35;;;;;;;10.02;1.35;;;17.20;99.90;;;;;;5093313;28;20524;-48
2022/11/10 09:04:01;;;;;;;12.27;1.83;;;16.80;99.90;;;;;;5092398;28;20485;-51
2022/11/10 09:06:26;;;;;;;17.23;2.00;;;17.80;99.90;;;;;;5093188;28;20028;-54
2022/11/10 09:08:52;;;;;;;9.38;1.25;;;16.50;99.90;;;;;;5093327;28;20112;-49
2022/11/10 09:11:18;;;;;;;9.88;1.60;;;16.40;99.90;;;;;;5093262;28;20362;-52
2022/11/10 09:13:43;;;;;;;9.73;2.25;;;16.40;99.90;;;;;;5090913;28;20037;-51
2022/11/10 09:16:09;;;;;;;12.55;1.80;;;16.20;99.90;;;;;;5093424;28;20044;-52
2022/11/10 09:18:34;;;;;;;10.57;1.58;;;15.90;99.90;;;;;;5093300;28;20090;-48
2022/11/10 09:21:03;;;;;;;12.77;1.70;;;16.00;99.90;;;;;;5093012;28;20051;-50
2022/11/10 09:23:28;;;;;;;10.02;1.73;;;16.80;99.90;;;;;;5089476;28;20059;-44
2022/11/10 09:25:55;;;;;;;10.63;1.52;;;17.60;99.90;;;;;;5093035;28;20096;-48
2022/11/10 09:28:22;;;;;;;7.90;1.55;;;17.80;99.90;;;;;;5093247;28;20040;-47
2022/11/10 09:30:49;;;;;;;13.45;2.17;;;17.10;99.90;;;;;;5089928;28;20081;-49
2022/11/10 09:33:15;;;;;;;9.55;1.60;;;16.40;99.90;;;;;;5092465;28;20552;-53
2022/11/10 09:35:41;;;;;;;11.10;1.20;;;15.80;99.90;;;;;;5092220;28;20020;-50
2022/11/10 09:38:08;;;;;;;9.82;1.58;;;15.50;99.90;;;;;;5092899;28;20063;-46
2022/11/10 09:40:49;;;;;;;7.95;2.15;;;15.50;99.90;;;;;;5083194;28;20023;-46
2022/11/10 09:43:35;;;;;;;7.95;1.50;;;16.20;99.90;;;;;;5074291;28;20028;-43
2022/11/10 09:46:22;;;;;;;10.07;1.30;;;18.20;99.90;;;;;;5078375;28;20123;-44
2022/11/10 09:48:52;;;;;;;9.68;1.48;;;19.50;99.90;;;;;;5079906;28;20128;-43
2022/11/10 09:51:26;;;;;;;8.07;1.55;;;18.70;99.90;;;;;;5092512;28;20020;-46
2022/11/10 09:53:56;;;;;;;12.73;1.45;;;18.20;99.90;;;;;;5086884;28;20031;-50
2022/11/10 09:56:31;;;;;;;11.48;1.10;;;18.00;99.90;;;;;;5092431;28;20057;-49
2022/11/10 09:58:57;;;;;;;9.77;1.55;;;17.60;99.90;;;;;;5092315;28;20035;-47
2022/11/10 10:01:37;;;;;;;12.07;1.90;;;17.00;99.90;;;;;;5092378;28;20028;-48
2022/11/10 10:04:15;;;;;;;;;;;16.60;99.90;;;;;;5085523;28;20035;-48
2022/11/10 10:06:58;;;;;;;12.98;2.00;;;16.10;99.90;;;;;;5085456;28;19916;-50
2022/11/10 10:09:44;;;;;;;12.18;1.85;;;15.70;99.90;;;;;;5078749;28;20055;-51
2022/11/10 10:12:46;;;;;;;11.68;1.75;;;15.40;99.90;;;;;;5085716;28;20495;-43
2022/11/10 10:15:23;;;;;;;9.80;1.77;;;15.20;99.90;;;;;;5084987;28;20481;-47
2022/11/10 10:18:26;;;;;;;14.63;2.10;;;15.00;99.90;;;;;;5091975;28;20034;-49
2022/11/10 10:21:10;;;;;;;13.02;2.13;;;14.90;99.90;;;;;;5091736;28;20075;-44
2022/11/10 10:23:44;;;;;;;7.45;1.50;;;14.90;99.90;;;;;;5077780;28;20119;-49
2022/11/10 10:26:15;;;;;;;12.98;2.40;;;15.00;99.90;;;;;;5084653;28;20071;-49
2022/11/10 10:28:45;;;;;;;9.07;1.63;;;15.00;99.90;;;;;;5088412;28;20093;-46
2022/11/10 10:31:25;;;;;;;10.93;1.85;;;14.90;99.90;;;;;;5091653;28;20027;-50
2022/11/10 10:33:53;;;;;;;11.90;1.70;;;14.80;99.90;;;;;;5084928;28;20436;-46
2022/11/10 10:36:26;;;;;;;18.17;2.63;;;14.80;99.90;;;;;;5091675;28;20039;-47
2022/11/10 10:39:00;;;;;;;11.52;1.55;;;14.80;99.90;;;;;;5091808;28;20024;-51
2022/11/10 10:41:31;;;;;;;8.15;1.40;;;14.80;99.90;;;;;;5091478;28;20020;-45
2022/11/10 10:44:00;;;;;;;9.75;1.73;;;14.80;99.90;;;;;;5090694;28;20388;-53
2022/11/10 10:46:28;;;;;;;17.25;1.80;;;14.90;99.90;;;;;;5091385;28;20039;-59
2022/11/10 10:49:05;;;;;;;10.65;1.60;;;15.00;99.90;;;;;;5091331;28;20481;-47
2022/11/10 10:51:31;;;;;;;11.98;1.90;;;15.10;99.90;;;;;;5091545;28;20020;-47
2022/11/10 10:53:56;;;;;;;10.07;1.50;;;15.80;99.90;;;;;;5078809;28;20050;-58
2022/11/10 10:56:27;;;;;;;10.75;1.50;;;16.50;99.90;;;;;;5091468;28;20110;-50
2022/11/10 10:58:59;;;;;;;9.60;1.65;;;17.30;99.90;;;;;;5091431;28;20035;-44
2022/11/10 11:01:29;;;;;;;11.90;1.65;;;17.10;99.90;;;;;;5091525;28;20028;-56
2022/11/10 11:03:55;;;;;;;10.60;1.70;;;16.70;99.90;;;;;;5090748;28;20512;-51
2022/11/10 11:06:25;;;;;;;8.30;1.45;;;16.30;99.90;;;;;;5090922;28;20074;-47
2022/11/10 11:09:37;;;;;;;10.82;1.52;;;16.10;99.90;;;;;;5090877;28;20028;-47
2022/11/10 11:12:07;;;;;;;8.23;1.60;;;15.90;99.90;;;;;;5080508;28;20497;-48
2022/11/10 11:14:32;;;;;;;8.00;1.55;;;15.70;99.90;;;;;;5091586;28;20069;-43
2022/11/10 11:17:10;;;;;;;12.70;1.50;;;15.70;99.90;;;;;;5091099;28;20123;-47
2022/11/10 11:19:37;;;;;;;15.98;2.83;;;15.70;99.90;;;;;;5078427;28;20065;-45
2022/11/10 11:22:42;;;;;;;15.82;2.33;;;15.90;99.90;;;;;;5088499;28;20496;-47
2022/11/10 11:25:33;;;;;;;12.07;2.03;;;17.30;99.90;;;;;;5079401;28;20039;-52
2022/11/10 11:28:17;;;;;;;8.85;1.35;;;18.90;99.90;;;;;;5077325;28;20492;-45
2022/11/10 11:31:03;;;;;;;9.88;1.63;;;19.50;99.90;;;;;;5090815;28;20024;-46
2022/11/10 11:33:37;;;;;;;10.38;1.83;;;19.80;99.90;;;;;;5086363;28;20038;-50
2022/11/10 11:36:40;;;;;;;8.40;1.35;;;20.30;99.90;;;;;;5090947;28;20024;-49
2022/11/10 11:39:11;;;;;;;8.73;1.50;;;20.80;99.90;;;;;;5090600;28;20032;-45
2022/11/10 11:41:58;;;;;;;9.38;1.90;;;20.00;99.90;;;;;;5090790;28;20128;-52
2022/11/10 11:44:31;;;;;;;11.23;1.65;;;19.00;99.90;;;;;;5086221;28;20165;-42
2022/11/10 11:47:34;;;;;;;13.75;2.22;;;18.30;99.90;;;;;;5090215;28;20036;-45
2022/11/10 11:50:00;;;;;;;7.13;1.25;;;18.00;99.90;;;;;;5090426;28;20016;-43
2022/11/10 11:52:47;;;;;;;9.68;1.80;;;17.40;99.90;;;;;;5085784;28;20416;-43
2022/11/10 11:55:19;;;;;;;7.28;1.42;;;16.90;99.90;;;;;;5087629;28;20032;-46
2022/11/10 11:58:04;;;;;;;9.13;1.55;;;16.60;99.90;;;;;;5090766;28;20056;-48
2022/11/10 12:00:49;;;;;;;9.80;1.63;;;16.50;99.90;;;;;;5090510;28;20032;-47
2022/11/10 12:03:33;;;;;;;14.82;1.50;;;16.70;99.90;;;;;;5077867;28;20029;-50
2022/11/10 12:06:05;;;;;;;27.00;3.42;;;16.90;99.90;;;;;;5077734;28;20538;-49
2022/11/10 12:08:49;;;;;;;8.75;1.33;;;17.00;99.90;;;;;;5090507;28;20024;-54
2022/11/10 12:11:21;;;;;;;12.45;1.45;;;17.00;99.90;;;;;;5090290;28;20031;-46
2022/11/10 12:13:47;;;;;;;7.00;1.60;;;16.40;99.90;;;;;;5090246;28;20063;-53
2022/11/10 12:16:20;;;;;;;12.65;1.90;;;16.20;99.90;;;;;;5090472;28;20046;-51
2022/11/10 12:19:06;;;;;;;12.15;1.52;;;16.20;99.90;;;;;;5090430;28;20115;-50
2022/11/10 12:21:51;;;;;;;10.60;1.60;;;16.20;99.90;;;;;;5090164;28;20093;-44
2022/11/10 12:25:10;;;;;;;9.40;1.38;;;16.20;99.90;;;;;;5088723;28;20066;-53
2022/11/10 12:27:45;;;;;;;;;;;15.90;99.90;;;;;;5007976;28;20150;-44
2022/11/10 12:30:16;;;;;;;11.88;1.52;;;15.70;99.90;;;;;;5079900;28;19904;-51
2022/11/10 12:33:10;;;;;;;11.98;1.73;;;15.50;99.90;;;;;;5087216;28;20024;-47
2022/11/10 12:35:40;;;;;;;11.23;1.85;;;15.40;99.90;;;;;;5090396;28;20028;-48
2022/11/10 12:38:26;;;;;;;15.77;1.45;;;15.40;99.90;;;;;;5090090;28;20547;-46
2022/11/10 12:41:00;;;;;;;13.82;2.13;;;15.20;99.90;;;;;;5090165;28;20024;-53
2022/11/10 12:43:34;;;;;;;12.63;2.28;;;15.10;99.90;;;;;;5085830;28;20625;-48
2022/11/10 12:46:04;;;;;;;9.52;1.48;;;15.10;99.90;;;;;;5089978;28;20045;-44
2022/11/10 12:48:41;;;;;;;10.63;2.22;;;15.20;99.90;;;;;;5091021;28;20032;-44
2022/11/10 12:51:23;;;;;;;10.80;1.98;;;15.20;99.90;;;;;;5094357;28;20143;-43
2022/11/10 12:53:49;;;;;;;11.40;1.60;;;15.30;99.90;;;;;;5083863;28;20059;-44
2022/11/10 12:56:31;;;;;;;10.80;1.63;;;15.40;99.90;;;;;;5093949;28;20020;-43
2022/11/10 12:59:19;;;;;;;8.68;1.73;;;15.50;99.90;;;;;;5093680;28;20020;-43
2022/11/10 13:01:49;;;;;;;11.40;1.90;;;15.50;99.90;;;;;;5093589;28;20031;-54
2022/11/10 13:04:16;;;;;;;14.98;1.90;;;15.50;99.90;;;;;;5082276;28;20020;-48
2022/11/10 13:06:50;;;;;;;9.48;1.48;;;15.40;99.90;;;;;;5093366;28;20515;-48